Time;durP1;ratioP1;P1;durP2;ratioP2;P2;SDS_P1;SDS_P2;PMS_P1;PMS_P2;Temp;Humidity;BMP_temperature;BMP_pressure;BME280_temperature;BME280_humidity;BME280_pressure;Samples;Min_cycle;Max_cycle;Signal;HPM_P1;HPM_P2
2023/10/24 00:01:57;;;;;;;7.75;3.72;;;13.40;99.90;;;;;;4969998;28;20533;-80
2023/10/24 00:04:25;;;;;;;8.32;3.88;;;13.40;99.90;;;;;;4953683;28;20078;-80
2023/10/24 00:06:52;;;;;;;8.55;3.17;;;13.40;99.90;;;;;;4985782;28;22128;-81
2023/10/24 00:09:19;;;;;;;7.40;3.65;;;13.30;99.90;;;;;;4964240;28;20042;-80
2023/10/24 00:11:46;;;;;;;8.07;3.92;;;13.40;99.90;;;;;;4962284;28;20421;-80
2023/10/24 00:14:13;;;;;;;6.85;3.78;;;13.30;99.90;;;;;;4954603;28;20524;-80
2023/10/24 00:16:40;;;;;;;8.05;3.75;;;13.40;99.90;;;;;;4933734;28;20087;-80
2023/10/24 00:19:08;;;;;;;7.75;4.10;;;13.40;99.90;;;;;;4966492;28;20457;-80
2023/10/24 00:21:35;;;;;;;10.85;4.30;;;13.30;99.90;;;;;;4949805;28;20141;-80
2023/10/24 00:24:02;;;;;;;5.60;3.42;;;13.40;99.90;;;;;;4949618;28;20058;-80
2023/10/24 00:26:29;;;;;;;10.38;4.85;;;13.40;99.90;;;;;;4964929;28;20058;-80
2023/10/24 00:28:56;;;;;;;9.43;4.60;;;13.30;99.90;;;;;;4947580;28;20069;-80
2023/10/24 00:31:24;;;;;;;9.30;4.47;;;13.30;99.90;;;;;;4946401;28;20429;-80
2023/10/24 00:33:51;;;;;;;11.15;3.97;;;13.30;99.90;;;;;;4966863;28;20069;-80
2023/10/24 00:36:18;;;;;;;11.30;4.78;;;13.30;99.90;;;;;;4949828;28;20161;-80
2023/10/24 00:38:45;;;;;;;7.22;3.78;;;13.30;99.90;;;;;;4962960;28;20767;-80
2023/10/24 00:41:12;;;;;;;8.55;4.03;;;13.20;99.90;;;;;;4933706;28;20201;-80
2023/10/24 00:43:39;;;;;;;8.40;4.03;;;13.20;99.90;;;;;;4982753;28;20152;-80
2023/10/24 00:46:08;;;;;;;11.63;4.07;;;13.20;99.90;;;;;;4968814;28;20050;-80
2023/10/24 00:48:35;;;;;;;12.43;4.13;;;13.20;99.90;;;;;;4932111;28;20050;-80
2023/10/24 00:51:03;;;;;;;9.07;4.10;;;13.20;99.90;;;;;;4954584;28;22273;-81
2023/10/24 00:53:30;;;;;;;8.65;4.15;;;13.10;99.90;;;;;;4953669;28;20054;-80
2023/10/24 00:55:58;;;;;;;7.25;4.10;;;13.00;99.90;;;;;;4965586;28;20046;-80
2023/10/24 00:58:27;;;;;;;7.25;3.88;;;13.00;99.90;;;;;;4947714;28;20054;-80
2023/10/24 01:00:55;;;;;;;6.55;4.22;;;13.10;99.90;;;;;;4957339;28;20100;-80
2023/10/24 01:03:23;;;;;;;9.05;3.97;;;13.10;99.90;;;;;;4969308;28;20132;-80
2023/10/24 01:05:50;;;;;;;8.40;4.32;;;13.10;99.90;;;;;;4954055;28;20124;-80
2023/10/24 01:08:18;;;;;;;9.00;4.20;;;13.00;99.90;;;;;;4963714;28;20046;-80
2023/10/24 01:10:45;;;;;;;10.30;4.57;;;13.00;99.90;;;;;;4946522;28;20555;-80
2023/10/24 01:13:12;;;;;;;8.82;4.18;;;12.90;99.90;;;;;;4951640;28;20046;-80
2023/10/24 01:15:39;;;;;;;10.80;5.05;;;13.00;99.90;;;;;;4949171;28;20054;-80
2023/10/24 01:18:07;;;;;;;10.43;4.45;;;13.00;99.90;;;;;;4945135;28;20413;-80
2023/10/24 01:20:39;;;;;;;10.32;4.28;;;13.00;99.90;;;;;;4945491;28;20074;-79
2023/10/24 01:23:08;;;;;;;7.60;3.80;;;13.00;99.90;;;;;;4959699;28;20501;-80
2023/10/24 01:25:41;;;;;;;7.88;4.22;;;12.90;99.90;;;;;;4931279;28;20089;-80
2023/10/24 01:28:09;;;;;;;6.20;3.72;;;12.90;99.90;;;;;;4967334;28;20050;-80
2023/10/24 01:30:38;;;;;;;9.30;4.78;;;12.90;99.90;;;;;;4952790;28;22217;-80
2023/10/24 01:33:05;;;;;;;10.27;4.97;;;12.90;99.90;;;;;;4939497;28;20050;-80
2023/10/24 01:35:32;;;;;;;11.63;4.22;;;12.90;99.90;;;;;;4955710;28;20050;-80
2023/10/24 01:37:59;;;;;;;8.48;4.15;;;12.90;99.90;;;;;;4937489;28;20055;-80
2023/10/24 01:40:26;;;;;;;10.98;5.15;;;12.90;99.90;;;;;;4948038;28;20109;-80
2023/10/24 01:42:54;;;;;;;12.13;4.85;;;12.90;99.90;;;;;;4957263;28;20100;-80
2023/10/24 01:45:21;;;;;;;7.05;4.30;;;12.80;99.90;;;;;;4954317;28;20374;-80
2023/10/24 01:47:48;;;;;;;8.80;4.18;;;12.70;99.90;;;;;;4954224;28;20050;-80
2023/10/24 01:50:15;;;;;;;9.27;3.75;;;12.80;99.90;;;;;;4998433;28;20490;-80
2023/10/24 01:52:43;;;;;;;9.80;4.53;;;12.70;99.90;;;;;;4954591;28;20511;-80
2023/10/24 01:55:11;;;;;;;8.70;4.40;;;12.80;99.90;;;;;;4981525;28;20104;-80
2023/10/24 01:57:38;;;;;;;6.95;3.55;;;12.70;99.90;;;;;;4971885;28;20196;-80
2023/10/24 02:00:07;;;;;;;9.27;3.55;;;12.80;99.90;;;;;;4961651;28;20441;-80
2023/10/24 02:02:38;;;;;;;7.57;3.63;;;12.80;99.90;;;;;;4958695;28;20659;-80
2023/10/24 02:05:07;;;;;;;9.85;3.50;;;12.70;99.90;;;;;;4976864;28;20068;-80
2023/10/24 02:07:34;;;;;;;8.88;4.18;;;12.80;99.90;;;;;;4941568;28;20065;-80
2023/10/24 02:10:03;;;;;;;7.20;3.95;;;12.80;99.90;;;;;;4944351;28;20058;-80
2023/10/24 02:12:30;;;;;;;15.38;4.13;;;12.70;99.90;;;;;;4961503;28;20046;-80
2023/10/24 02:14:57;;;;;;;9.43;3.70;;;12.70;99.90;;;;;;4961887;28;20478;-80
2023/10/24 02:17:24;;;;;;;6.47;3.33;;;12.70;99.90;;;;;;4948744;28;20053;-80
2023/10/24 02:19:53;;;;;;;9.13;4.05;;;12.70;99.90;;;;;;4940650;28;20050;-80
2023/10/24 02:22:20;;;;;;;12.90;4.72;;;12.70;99.90;;;;;;4965079;28;22108;-80
2023/10/24 02:24:49;;;;;;;8.93;3.17;;;12.70;99.90;;;;;;4950983;28;20057;-80
2023/10/24 02:27:17;;;;;;;6.55;3.45;;;12.60;99.90;;;;;;4971480;28;20050;-80
2023/10/24 02:29:44;;;;;;;8.45;4.05;;;12.60;99.90;;;;;;4971926;28;20622;-80
2023/10/24 02:32:11;;;;;;;9.55;3.72;;;12.60;99.90;;;;;;4963330;28;20068;-80
2023/10/24 02:34:39;;;;;;;7.28;3.55;;;12.50;99.90;;;;;;4945983;28;22225;-80
2023/10/24 02:37:06;;;;;;;8.45;3.05;;;12.60;99.90;;;;;;4946713;28;20069;-80
2023/10/24 02:39:33;;;;;;;6.88;3.65;;;12.50;99.90;;;;;;4959749;28;20149;-80
2023/10/24 02:42:00;;;;;;;7.80;3.63;;;12.50;99.90;;;;;;4968692;28;20211;-80
2023/10/24 02:44:28;;;;;;;6.82;4.38;;;12.50;99.90;;;;;;4959145;28;22193;-80
2023/10/24 02:46:55;;;;;;;12.02;4.03;;;12.50;99.90;;;;;;4972522;28;20050;-80
2023/10/24 02:49:23;;;;;;;5.72;3.53;;;12.40;99.90;;;;;;4978545;28;20232;-80
2023/10/24 02:51:50;;;;;;;6.82;3.50;;;12.50;99.90;;;;;;4947110;28;20046;-80
2023/10/24 02:54:17;;;;;;;12.10;4.25;;;12.50;99.90;;;;;;4980775;28;20050;-80
2023/10/24 02:56:45;;;;;;;7.93;3.90;;;12.40;99.90;;;;;;4957039;28;20061;-80
2023/10/24 02:59:12;;;;;;;7.95;4.25;;;12.40;99.90;;;;;;4984890;28;20565;-81
2023/10/24 03:01:40;;;;;;;8.40;3.60;;;12.40;99.90;;;;;;4966414;28;20477;-80
2023/10/24 03:04:07;;;;;;;6.78;3.25;;;12.40;99.90;;;;;;4980938;28;20114;-80
2023/10/24 03:06:34;;;;;;;8.63;3.85;;;12.40;99.90;;;;;;4987980;28;20074;-80
2023/10/24 03:09:02;;;;;;;6.10;3.03;;;12.50;99.90;;;;;;4958337;28;20908;-80
2023/10/24 03:11:29;;;;;;;7.82;2.88;;;12.50;99.90;;;;;;4969682;28;20046;-80
2023/10/24 03:13:57;;;;;;;5.80;2.60;;;12.50;99.90;;;;;;4967729;28;20050;-80
2023/10/24 03:16:24;;;;;;;4.50;2.95;;;12.50;99.90;;;;;;4960558;28;20092;-80
2023/10/24 03:18:51;;;;;;;5.68;3.50;;;12.50;99.90;;;;;;4967073;28;20065;-80
2023/10/24 03:21:19;;;;;;;10.90;3.80;;;12.50;99.90;;;;;;4962703;28;20054;-80
2023/10/24 03:23:46;;;;;;;6.70;3.10;;;12.50;99.90;;;;;;4994105;28;20046;-80
2023/10/24 03:26:13;;;;;;;9.15;3.35;;;12.40;99.90;;;;;;5013142;28;20039;-81
2023/10/24 03:28:40;;;;;;;6.25;3.15;;;12.20;99.90;;;;;;4962910;28;20046;-80
2023/10/24 03:31:08;;;;;;;6.72;2.72;;;12.30;99.90;;;;;;4996373;28;20065;-80
2023/10/24 03:33:37;;;;;;;6.78;3.50;;;12.40;99.90;;;;;;4985250;28;20050;-80
2023/10/24 03:36:04;;;;;;;5.43;3.28;;;12.40;99.90;;;;;;4966265;28;20065;-80
2023/10/24 03:38:32;;;;;;;6.13;2.65;;;12.50;99.90;;;;;;4954001;28;20043;-80
2023/10/24 03:40:59;;;;;;;8.48;3.65;;;12.50;99.90;;;;;;4960081;28;20045;-80
2023/10/24 03:43:26;;;;;;;7.07;3.38;;;12.50;99.90;;;;;;4974235;28;20181;-80
2023/10/24 03:45:53;;;;;;;9.90;3.63;;;12.50;99.90;;;;;;4939720;28;20623;-80
2023/10/24 03:48:20;;;;;;;5.40;3.15;;;12.40;99.90;;;;;;4968663;28;20820;-80
2023/10/24 03:50:47;;;;;;;7.28;2.78;;;12.40;99.90;;;;;;4961558;28;20050;-80
2023/10/24 03:53:15;;;;;;;6.93;3.20;;;12.40;99.90;;;;;;4976634;28;20885;-80
2023/10/24 03:55:42;;;;;;;6.88;3.15;;;12.40;99.90;;;;;;4945437;28;20339;-80
2023/10/24 03:58:09;;;;;;;7.20;2.95;;;12.40;99.90;;;;;;4980142;28;20055;-80
2023/10/24 04:00:36;;;;;;;6.60;3.05;;;12.40;99.90;;;;;;4961498;28;20058;-80
2023/10/24 04:03:03;;;;;;;6.50;3.20;;;12.30;99.90;;;;;;4976437;28;20054;-80
2023/10/24 04:05:33;;;;;;;7.47;3.40;;;12.20;99.90;;;;;;4939011;28;20061;-80
2023/10/24 04:08:01;;;;;;;10.63;4.15;;;12.20;99.90;;;;;;4966259;28;20138;-80
2023/10/24 04:10:28;;;;;;;6.07;3.33;;;12.20;99.90;;;;;;4957555;28;20049;-80
2023/10/24 04:12:55;;;;;;;6.13;3.75;;;12.20;99.90;;;;;;4932685;28;20050;-80
2023/10/24 04:15:23;;;;;;;9.02;3.42;;;12.20;99.90;;;;;;4982707;28;20042;-79
2023/10/24 04:17:51;;;;;;;10.88;4.10;;;12.10;99.90;;;;;;4939847;28;21125;-79
2023/10/24 04:20:18;;;;;;;10.68;4.80;;;12.20;99.90;;;;;;4987083;28;20051;-79
2023/10/24 04:22:48;;;;;;;9.95;4.05;;;10.80;99.90;;;;;;4950323;28;20955;-79
2023/10/24 04:25:16;;;;;;;7.90;4.15;;;12.20;99.90;;;;;;4961380;28;20433;-79
2023/10/24 04:27:43;;;;;;;8.60;4.30;;;13.50;99.90;;;;;;4981477;28;20054;-79
2023/10/24 04:30:11;;;;;;;9.23;4.45;;;11.20;99.90;;;;;;4962574;28;20038;-79
2023/10/24 04:32:38;;;;;;;9.25;4.03;;;12.00;99.90;;;;;;4927663;28;20143;-79
2023/10/24 04:35:05;;;;;;;9.70;4.53;;;12.00;99.90;;;;;;4945293;28;20131;-79
2023/10/24 04:37:33;;;;;;;9.77;4.80;;;12.00;99.90;;;;;;4963577;28;20231;-79
2023/10/24 04:40:00;;;;;;;16.42;6.15;;;12.10;99.90;;;;;;4946508;28;20488;-79
2023/10/24 04:42:28;;;;;;;10.73;5.57;;;12.20;99.90;;;;;;4947393;28;20096;-79
2023/10/24 04:44:55;;;;;;;9.10;4.97;;;12.00;99.90;;;;;;4940905;28;20062;-79
2023/10/24 04:47:22;;;;;;;9.00;4.63;;;12.00;99.90;;;;;;4955311;28;20038;-79
2023/10/24 04:49:49;;;;;;;8.52;5.25;;;12.10;99.90;;;;;;4941935;28;20057;-79
2023/10/24 04:52:16;;;;;;;9.63;5.55;;;12.10;99.90;;;;;;4992785;28;20050;-79
2023/10/24 04:54:44;;;;;;;8.93;5.13;;;12.00;99.90;;;;;;4947978;28;20061;-79
2023/10/24 04:57:11;;;;;;;10.63;5.03;;;12.00;99.90;;;;;;4948658;28;20054;-79
2023/10/24 04:59:38;;;;;;;8.23;5.10;;;11.90;99.90;;;;;;4974854;28;20053;-79
2023/10/24 05:02:05;;;;;;;8.85;4.95;;;12.00;99.90;;;;;;4962522;28;22080;-79
2023/10/24 05:04:32;;;;;;;7.90;4.60;;;11.90;99.90;;;;;;4945411;28;20057;-79
2023/10/24 05:07:00;;;;;;;11.77;5.00;;;12.00;99.90;;;;;;4956119;28;20054;-79
2023/10/24 05:09:27;;;;;;;9.60;4.72;;;12.00;99.90;;;;;;4945613;28;20061;-79
2023/10/24 05:11:54;;;;;;;8.95;4.53;;;12.00;99.90;;;;;;4944485;28;20097;-80
2023/10/24 05:14:21;;;;;;;10.32;4.97;;;11.80;99.90;;;;;;4938661;28;20081;-80
2023/10/24 05:16:54;;;;;;;7.38;4.65;;;11.90;99.90;;;;;;5010930;28;20041;-80
2023/10/24 05:19:22;;;;;;;13.55;5.25;;;11.80;99.90;;;;;;4951746;28;20809;-79
2023/10/24 05:21:49;;;;;;;11.68;5.03;;;11.90;99.90;;;;;;4944911;28;20141;-79
2023/10/24 05:24:16;;;;;;;10.95;5.53;;;11.90;99.90;;;;;;4941812;28;20497;-79
2023/10/24 05:26:44;;;;;;;12.07;5.78;;;12.20;99.90;;;;;;4970841;28;20136;-78
2023/10/24 05:29:11;;;;;;;8.43;5.18;;;11.80;99.90;;;;;;4943866;28;20876;-79
2023/10/24 05:31:38;;;;;;;13.55;6.60;;;12.00;99.90;;;;;;4937258;28;20037;-79
2023/10/24 05:34:05;;;;;;;13.32;7.30;;;11.90;99.90;;;;;;4960241;28;20085;-79
2023/10/24 05:36:32;;;;;;;15.52;7.93;;;12.30;99.90;;;;;;4950420;28;22289;-78
2023/10/24 05:39:00;;;;;;;15.20;7.35;;;12.20;99.90;;;;;;4937353;28;20054;-79
2023/10/24 05:41:27;;;;;;;17.35;7.05;;;12.50;99.90;;;;;;4939773;28;20206;-79
2023/10/24 05:43:55;;;;;;;15.05;8.07;;;12.20;99.90;;;;;;4933472;28;20054;-79
2023/10/24 05:46:23;;;;;;;23.33;10.18;;;10.80;99.90;;;;;;4971286;28;20050;-79
2023/10/24 05:48:50;;;;;;;19.25;8.95;;;12.00;99.90;;;;;;4968523;28;20054;-79
2023/10/24 05:51:29;;;;;;;21.85;9.95;;;12.10;99.90;;;;;;4985921;28;20046;-79
2023/10/24 05:53:56;;;;;;;19.88;9.98;;;12.00;99.90;;;;;;4987371;28;20138;-79
2023/10/24 05:56:23;;;;;;;17.20;9.20;;;12.10;99.90;;;;;;4954231;28;20098;-79
2023/10/24 05:58:51;;;;;;;21.58;9.50;;;12.10;99.90;;;;;;4963915;28;20079;-79
2023/10/24 06:01:18;;;;;;;22.05;10.00;;;11.90;99.90;;;;;;4930053;28;20699;-79
2023/10/24 06:03:45;;;;;;;18.27;10.23;;;12.20;99.90;;;;;;4943653;28;20639;-79
2023/10/24 06:06:13;;;;;;;28.10;12.13;;;12.00;99.90;;;;;;4944367;28;20046;-79
2023/10/24 06:08:40;;;;;;;25.48;12.45;;;12.00;99.90;;;;;;4953877;28;22582;-79
2023/10/24 06:11:07;;;;;;;24.50;12.05;;;12.00;99.90;;;;;;4953398;28;20042;-79
2023/10/24 06:13:34;;;;;;;23.65;11.07;;;12.10;99.90;;;;;;4946498;28;20043;-79
2023/10/24 06:16:13;;;;;;;22.95;11.50;;;12.10;99.90;;;;;;4927626;28;20046;-79
2023/10/24 06:18:40;;;;;;;26.10;11.38;;;12.20;99.90;;;;;;4928130;28;20571;-79
2023/10/24 06:21:08;;;;;;;22.25;10.85;;;12.20;99.90;;;;;;4928258;28;22180;-79
2023/10/24 06:23:37;;;;;;;22.20;10.63;;;12.20;99.90;;;;;;4960770;28;22230;-79
2023/10/24 06:26:12;;;;;;;20.17;10.68;;;12.20;99.90;;;;;;4927514;28;20667;-79
2023/10/24 06:28:39;;;;;;;20.63;10.35;;;12.30;99.90;;;;;;4928575;28;20069;-79
2023/10/24 06:31:06;;;;;;;21.80;10.68;;;12.30;99.90;;;;;;4951585;28;20039;-79
2023/10/24 06:33:34;;;;;;;25.42;10.57;;;12.40;99.90;;;;;;4941489;28;20140;-79
2023/10/24 06:36:05;;;;;;;26.35;11.90;;;12.40;99.90;;;;;;4922707;28;20521;-79
2023/10/24 06:38:32;;;;;;;22.77;11.15;;;12.50;99.90;;;;;;4943915;28;20056;-79
2023/10/24 06:40:59;;;;;;;35.80;13.38;;;12.50;99.90;;;;;;4949784;28;20169;-79
2023/10/24 06:43:27;;;;;;;33.25;12.88;;;12.60;99.90;;;;;;4942830;28;20046;-79
2023/10/24 06:45:54;;;;;;;27.85;11.60;;;12.60;99.90;;;;;;4925828;28;20069;-79
2023/10/24 06:48:21;;;;;;;26.65;10.35;;;12.60;99.90;;;;;;4925269;28;20101;-79
2023/10/24 06:50:48;;;;;;;33.03;12.50;;;12.70;99.90;;;;;;4959490;28;20214;-79
2023/10/24 06:53:16;;;;;;;24.30;10.50;;;12.80;99.90;;;;;;4941609;28;20054;-79
2023/10/24 06:55:43;;;;;;;20.92;9.40;;;12.80;99.90;;;;;;4958448;28;20051;-79
2023/10/24 06:58:10;;;;;;;17.10;8.93;;;12.90;99.90;;;;;;4935036;28;20054;-78
2023/10/24 07:00:37;;;;;;;14.30;7.38;;;12.90;99.90;;;;;;4936797;28;20056;-79
2023/10/24 07:03:04;;;;;;;12.40;6.63;;;13.00;99.90;;;;;;4957587;28;20053;-79
2023/10/24 07:05:32;;;;;;;10.88;5.53;;;13.10;99.90;;;;;;4943469;28;20148;-78
2023/10/24 07:07:59;;;;;;;9.93;5.90;;;13.20;99.90;;;;;;4942473;28;20085;-79
2023/10/24 07:10:27;;;;;;;11.27;5.28;;;13.30;99.90;;;;;;4942106;28;20046;-79
2023/10/24 07:12:54;;;;;;;8.80;5.60;;;13.40;99.90;;;;;;4943667;28;20046;-79
2023/10/24 07:15:21;;;;;;;11.13;6.22;;;13.40;99.90;;;;;;4961913;28;20146;-80
2023/10/24 07:17:48;;;;;;;11.82;5.57;;;13.40;99.90;;;;;;4939299;28;20050;-80
2023/10/24 07:20:15;;;;;;;10.52;4.93;;;13.30;99.90;;;;;;4939224;28;22525;-79
2023/10/24 07:22:42;;;;;;;12.48;6.10;;;13.50;99.90;;;;;;4945206;28;20121;-79
2023/10/24 07:25:10;;;;;;;10.15;5.70;;;13.60;99.90;;;;;;4970389;28;20066;-79
2023/10/24 07:27:37;;;;;;;14.75;5.55;;;13.70;99.90;;;;;;4957144;28;20138;-79
2023/10/24 07:30:07;;;;;;;10.60;6.03;;;13.80;99.90;;;;;;4945202;28;20303;-79
2023/10/24 07:32:35;;;;;;;9.65;4.72;;;13.90;99.90;;;;;;4947291;28;20176;-79
2023/10/24 07:35:03;;;;;;;11.95;5.32;;;14.00;99.90;;;;;;4944262;28;20587;-79
2023/10/24 07:37:31;;;;;;;10.88;5.30;;;14.00;99.90;;;;;;4963936;28;20065;-78
2023/10/24 07:39:58;;;;;;;12.82;4.97;;;14.00;99.90;;;;;;4947584;28;20100;-79
2023/10/24 07:42:25;;;;;;;10.25;5.18;;;14.00;99.90;;;;;;4949268;28;20050;-79
2023/10/24 07:44:53;;;;;;;12.07;6.60;;;14.10;99.90;;;;;;4962856;28;20092;-79
2023/10/24 07:47:20;;;;;;;11.43;5.43;;;14.20;99.90;;;;;;4931190;28;20772;-79
2023/10/24 07:49:47;;;;;;;10.77;4.88;;;14.10;99.90;;;;;;4943418;28;20053;-79
2023/10/24 07:52:15;;;;;;;10.65;5.20;;;14.10;99.90;;;;;;4958319;28;20520;-79
2023/10/24 07:54:42;;;;;;;14.02;5.35;;;14.20;99.90;;;;;;4956618;28;20050;-80
2023/10/24 07:57:09;;;;;;;10.52;4.57;;;14.30;99.90;;;;;;4948995;28;20284;-80
2023/10/24 07:59:37;;;;;;;8.05;4.20;;;14.40;99.90;;;;;;4938984;28;20046;-79
2023/10/24 08:02:04;;;;;;;8.55;5.00;;;14.60;99.90;;;;;;4931971;28;20042;-80
2023/10/24 08:04:32;;;;;;;6.50;4.15;;;14.70;99.90;;;;;;4943050;28;20177;-79
2023/10/24 08:06:59;;;;;;;8.02;4.25;;;14.90;99.90;;;;;;4944613;28;20053;-80
2023/10/24 08:09:26;;;;;;;6.75;3.42;;;15.00;99.90;;;;;;4943772;28;20085;-79
2023/10/24 08:11:53;;;;;;;8.77;3.40;;;15.00;99.90;;;;;;4962071;28;20042;-80
2023/10/24 08:14:20;;;;;;;7.25;3.90;;;15.20;99.90;;;;;;4951187;28;20133;-79
2023/10/24 08:16:48;;;;;;;7.35;3.20;;;15.30;99.90;;;;;;4948960;28;22792;-79
2023/10/24 08:19:15;;;;;;;5.18;3.17;;;15.30;99.90;;;;;;4930402;28;20042;-79
2023/10/24 08:21:42;;;;;;;7.10;3.47;;;15.40;99.90;;;;;;4980101;28;20082;-79
2023/10/24 08:24:09;;;;;;;6.68;3.25;;;15.50;99.90;;;;;;4928358;28;20046;-78
2023/10/24 08:26:36;;;;;;;8.85;3.30;;;15.50;99.90;;;;;;4939023;28;20062;-79
2023/10/24 08:29:03;;;;;;;5.22;2.00;;;15.50;99.90;;;;;;4972512;28;20357;-80
2023/10/24 08:31:30;;;;;;;5.82;2.10;;;15.40;99.90;;;;;;4956555;28;20503;-79
2023/10/24 08:34:08;;;;;;;5.75;2.03;;;15.50;99.90;;;;;;4972739;28;20057;-80
2023/10/24 08:36:35;;;;;;;6.20;2.13;;;15.50;99.90;;;;;;4963888;28;20535;-80
2023/10/24 08:39:03;;;;;;;5.50;1.77;;;15.40;99.90;;;;;;4946701;28;22281;-79
2023/10/24 08:41:31;;;;;;;5.43;1.70;;;15.50;99.90;;;;;;4943346;28;20051;-80
2023/10/24 08:43:58;;;;;;;4.97;1.58;;;15.50;99.90;;;;;;4965032;28;20054;-80
2023/10/24 08:46:26;;;;;;;5.50;1.80;;;15.60;99.90;;;;;;4945794;28;20054;-79
2023/10/24 08:48:53;;;;;;;3.78;1.77;;;15.60;99.90;;;;;;4933453;28;20058;-80
2023/10/24 08:51:21;;;;;;;4.78;1.52;;;15.60;99.90;;;;;;4945983;28;20089;-79
2023/10/24 08:53:48;;;;;;;5.43;1.75;;;15.60;99.90;;;;;;4960106;28;20038;-79
2023/10/24 08:56:16;;;;;;;4.45;1.75;;;15.70;99.90;;;;;;4941150;28;20557;-80
2023/10/24 08:58:46;;;;;;;7.00;1.50;;;15.70;99.90;;;;;;4946161;28;20118;-79
2023/10/24 09:01:13;;;;;;;5.55;1.20;;;15.70;99.90;;;;;;4948182;28;20169;-79
2023/10/24 09:03:42;;;;;;;4.15;1.02;;;15.80;99.90;;;;;;4958152;28;20694;-80
2023/10/24 09:06:10;;;;;;;5.70;1.58;;;15.80;99.90;;;;;;4973320;28;20185;-80
2023/10/24 09:08:37;;;;;;;3.65;1.27;;;15.80;99.90;;;;;;4946473;28;20076;-80
2023/10/24 09:11:04;;;;;;;2.85;1.30;;;15.80;99.90;;;;;;4946491;28;20145;-79
2023/10/24 09:13:34;;;;;;;3.60;0.85;;;15.90;99.90;;;;;;4943681;28;20046;-80
2023/10/24 09:16:09;;;;;;;5.00;0.90;;;15.90;99.90;;;;;;4925834;28;20248;-80
2023/10/24 09:18:40;;;;;;;3.30;0.73;;;15.80;99.90;;;;;;4938617;28;20215;-79
2023/10/24 09:21:08;;;;;;;1.65;0.60;;;15.90;99.90;;;;;;4947739;28;20053;-79
2023/10/24 09:23:37;;;;;;;6.47;1.58;;;15.90;99.90;;;;;;4948680;28;20050;-79
2023/10/24 09:26:06;;;;;;;4.00;1.15;;;15.90;99.90;;;;;;4947953;28;20184;-80
2023/10/24 09:28:36;;;;;;;2.40;0.60;;;16.00;99.90;;;;;;4945509;28;20144;-79
2023/10/24 09:31:04;;;;;;;4.68;1.05;;;16.00;99.90;;;;;;4927802;28;20655;-79
2023/10/24 09:33:33;;;;;;;6.57;0.70;;;16.10;99.90;;;;;;4943100;28;20603;-80
2023/10/24 09:36:00;;;;;;;3.60;0.90;;;16.10;99.90;;;;;;4944529;28;20269;-79
2023/10/24 09:38:42;;;;;;;2.28;0.50;;;16.10;99.90;;;;;;4947812;28;20138;-80
2023/10/24 09:41:10;;;;;;;2.75;0.70;;;16.30;99.90;;;;;;4954806;28;20194;-80
2023/10/24 09:43:46;;;;;;;4.60;0.85;;;16.60;99.90;;;;;;4957401;28;20513;-79
2023/10/24 09:46:24;;;;;;;1.50;0.47;;;16.80;99.90;;;;;;4955125;28;20058;-80
2023/10/24 09:48:54;;;;;;;5.68;1.08;;;17.00;99.90;;;;;;4927865;28;20144;-80
2023/10/24 09:51:22;;;;;;;3.90;0.85;;;17.10;99.90;;;;;;4945278;28;20043;-79
2023/10/24 09:53:50;;;;;;;1.88;0.57;;;17.10;99.90;;;;;;4958309;28;20505;-80
2023/10/24 09:56:19;;;;;;;2.72;0.43;;;17.10;99.90;;;;;;4943383;28;20054;-79
2023/10/24 09:58:48;;;;;;;2.97;0.80;;;17.10;99.90;;;;;;4943326;28;20047;-81
2023/10/24 10:01:17;;;;;;;4.65;0.82;;;17.10;99.90;;;;;;4952999;28;20750;-79
2023/10/24 10:03:45;;;;;;;3.38;0.60;;;17.20;99.90;;;;;;4957204;28;20399;-79
2023/10/24 10:06:14;;;;;;;4.80;0.95;;;17.20;99.90;;;;;;4952257;28;20050;-79
2023/10/24 10:08:41;;;;;;;2.15;0.65;;;17.20;99.90;;;;;;4933614;28;20061;-80
2023/10/24 10:11:08;;;;;;;2.10;0.40;;;17.30;99.90;;;;;;4936267;28;20053;-80
2023/10/24 10:13:42;;;;;;;3.20;0.60;;;17.50;99.90;;;;;;4944730;28;20188;-79
2023/10/24 10:16:28;;;;;;;2.30;0.75;;;17.50;99.90;;;;;;4943007;28;20054;-80
2023/10/24 10:19:06;;;;;;;2.47;0.60;;;17.40;99.90;;;;;;4960606;28;20053;-80
2023/10/24 10:22:00;;;;;;;4.32;0.60;;;17.40;99.90;;;;;;4942496;28;20052;-80
2023/10/24 10:24:52;;;;;;;3.50;0.75;;;17.30;99.90;;;;;;4928491;28;20081;-79
2023/10/24 10:27:38;;;;;;;3.20;0.63;;;17.30;99.90;;;;;;4946403;28;20193;-79
2023/10/24 10:30:18;;;;;;;7.63;0.60;;;17.30;99.90;;;;;;4926843;28;20062;-79
2023/10/24 10:33:12;;;;;;;1.55;0.50;;;17.20;99.90;;;;;;4943131;28;20540;-79
2023/10/24 10:35:49;;;;;;;6.22;1.35;;;17.20;99.90;;;;;;4952311;28;20505;-78
2023/10/24 10:38:37;;;;;;;3.17;0.80;;;17.20;99.90;;;;;;4949673;28;20050;-79
2023/10/24 10:41:23;;;;;;;7.03;0.57;;;17.10;99.90;;;;;;4967462;28;20500;-80
2023/10/24 10:44:01;;;;;;;3.80;0.52;;;17.10;99.90;;;;;;4943659;28;20698;-79
2023/10/24 10:46:30;;;;;;;2.53;0.40;;;17.10;99.90;;;;;;4955914;28;21818;-79
2023/10/24 10:49:06;;;;;;;2.15;0.82;;;17.10;99.90;;;;;;4948714;28;20145;-79
2023/10/24 10:51:36;;;;;;;3.67;0.65;;;17.10;99.90;;;;;;4937796;28;20600;-80
2023/10/24 10:54:10;;;;;;;4.55;0.50;;;17.10;99.90;;;;;;4943763;28;20129;-80
2023/10/24 10:56:39;;;;;;;3.47;0.40;;;17.10;99.90;;;;;;4928550;28;20061;-80
2023/10/24 10:59:07;;;;;;;4.38;0.77;;;17.20;99.90;;;;;;4938860;28;20065;-79
2023/10/24 11:01:49;;;;;;;5.10;0.88;;;17.20;99.90;;;;;;4951693;28;20058;-79
2023/10/24 11:04:16;;;;;;;8.40;6.45;;;17.30;99.90;;;;;;4946349;28;20145;-82
2023/10/24 11:06:54;;;;;;;7.82;3.03;;;17.40;99.90;;;;;;4940651;28;20438;-80
2023/10/24 11:09:33;;;;;;;3.42;2.47;;;17.30;99.90;;;;;;4939480;28;20097;-80
2023/10/24 11:12:19;;;;;;;6.13;0.90;;;17.30;99.90;;;;;;4978738;28;20085;-79
2023/10/24 11:15:10;;;;;;;5.32;0.70;;;17.40;99.90;;;;;;4953958;28;20054;-81
2023/10/24 11:17:37;;;;;;;8.07;2.30;;;17.40;99.90;;;;;;4930932;28;20046;-79
2023/10/24 11:20:10;;;;;;;2.75;1.58;;;17.40;99.90;;;;;;4948046;28;20050;-79
2023/10/24 11:22:40;;;;;;;1.60;0.60;;;17.50;99.90;;;;;;4951052;28;20535;-81
2023/10/24 11:25:11;;;;;;;1.73;0.50;;;17.50;99.90;;;;;;4943832;28;20050;-80
2023/10/24 11:27:41;;;;;;;2.90;0.70;;;17.60;99.90;;;;;;4929636;28;20054;-80
2023/10/24 11:30:09;;;;;;;4.82;0.70;;;17.80;99.90;;;;;;4927224;28;20065;-81
2023/10/24 11:32:36;;;;;;;2.95;0.75;;;17.90;99.90;;;;;;4951134;28;20054;-78
2023/10/24 11:35:03;;;;;;;4.40;0.68;;;18.00;99.90;;;;;;4964420;28;20225;-79
2023/10/24 11:37:32;;;;;;;1.50;0.47;;;18.00;99.90;;;;;;4941931;28;20129;-79
2023/10/24 11:39:59;;;;;;;3.55;0.50;;;18.00;99.90;;;;;;4958062;28;20072;-79
2023/10/24 11:42:27;;;;;;;3.08;0.60;;;17.90;99.90;;;;;;4947596;28;20120;-80
2023/10/24 11:44:54;;;;;;;2.13;0.60;;;18.00;99.90;;;;;;4961614;28;20702;-80
2023/10/24 11:47:22;;;;;;;7.40;1.00;;;17.90;99.90;;;;;;4947459;28;20422;-80
2023/10/24 11:49:49;;;;;;;2.95;0.50;;;17.90;99.90;;;;;;4939222;28;20073;-81
2023/10/24 11:52:17;;;;;;;5.68;0.45;;;17.90;99.90;;;;;;4944373;28;20830;-80
2023/10/24 11:54:51;;;;;;;3.83;0.88;;;17.90;99.90;;;;;;4956725;28;20050;-80
2023/10/24 11:57:20;;;;;;;10.05;2.88;;;17.90;99.90;;;;;;4941659;28;20058;-79
2023/10/24 11:59:48;;;;;;;6.65;1.42;;;17.90;99.90;;;;;;4939983;28;20953;-79
2023/10/24 12:02:17;;;;;;;19.38;7.40;;;17.90;99.90;;;;;;4944209;28;20058;-79
2023/10/24 12:04:51;;;;;;;12.65;3.00;;;17.90;99.90;;;;;;4946316;28;20550;-79
2023/10/24 12:07:19;;;;;;;3.38;0.98;;;17.90;99.90;;;;;;4939819;28;20065;-79
2023/10/24 12:09:46;;;;;;;4.68;0.80;;;17.90;99.90;;;;;;4959633;28;20705;-79
2023/10/24 12:12:14;;;;;;;4.70;0.65;;;17.90;99.90;;;;;;4946413;28;20449;-80
2023/10/24 12:14:42;;;;;;;5.80;1.00;;;17.80;99.90;;;;;;4942890;28;20038;-80
2023/10/24 12:17:10;;;;;;;2.95;0.63;;;17.70;99.90;;;;;;4955324;28;20058;-80
2023/10/24 12:19:38;;;;;;;9.50;1.15;;;17.70;99.90;;;;;;4962745;28;21087;-80
2023/10/24 12:22:06;;;;;;;4.70;0.70;;;17.60;99.90;;;;;;4946395;28;20062;-80
2023/10/24 12:24:33;;;;;;;5.30;0.65;;;17.70;99.90;;;;;;4966985;28;20084;-80
2023/10/24 12:27:00;;;;;;;9.23;1.45;;;17.70;99.90;;;;;;4948044;28;20054;-80
2023/10/24 12:29:27;;;;;;;3.75;1.00;;;17.70;99.90;;;;;;4956532;28;20058;-80
2023/10/24 12:31:55;;;;;;;3.13;0.63;;;17.70;99.90;;;;;;4962268;28;20038;-80
2023/10/24 12:34:22;;;;;;;8.95;1.60;;;17.70;99.90;;;;;;4950388;28;20054;-80
2023/10/24 12:36:51;;;;;;;3.47;1.23;;;17.70;99.90;;;;;;4967211;28;20745;-79
2023/10/24 12:39:21;;;;;;;3.60;0.65;;;17.70;99.90;;;;;;4946494;28;20042;-80
2023/10/24 12:41:48;;;;;;;7.22;1.20;;;17.70;99.90;;;;;;4946281;28;20533;-80
2023/10/24 12:44:16;;;;;;;2.65;0.60;;;17.70;99.90;;;;;;4969146;28;20053;-80
2023/10/24 12:46:43;;;;;;;9.23;0.70;;;17.70;99.90;;;;;;4978782;28;20056;-80
2023/10/24 12:49:10;;;;;;;7.30;1.05;;;17.70;99.90;;;;;;4962897;28;20054;-79
2023/10/24 12:51:37;;;;;;;4.63;0.55;;;17.70;99.90;;;;;;4979897;28;20043;-80